Zhe Pu Tuo 2012 — BKRA5 — position and weather

sailwx.info

Track history (hours):
 
Tides and Currents Weather Stations Pressure Air Temp Water Temp Dewpoint Dewpoint Depression Visibility Wind Speed Wind Dir Waves Ship Positions

Zhe Pu Tuo 2012

Last reported at 2017-Apr-27 00:15 UTC. Time now 2017-Apr-27 05:20 UTC.
Position N 38°27' E 118°24'.

; draft 4 m.

Type: Tug. MMSI: 412763040.

Date/timePositionNaut miles runAvg speedWind from/ knotsBaromVisibWave heightAir tempDewpointWater temp
2017-Apr-27 00:15N 38°27' E 118°24'0 0.0
2017-Apr-25 09:12N 38°27' E 118°24'0 0.0
2017-Apr-25 08:45N 38°27' E 118°24'1 0.1
2017-Apr-25 03:41N 38°27' E 118°25'0 0.2
2017-Apr-25 03:26N 38°27' E 118°25'1 1.3
2017-Apr-25 02:58N 38°26' E 118°25'1 0.1
2017-Apr-24 17:37N 38°26' E 118°24'0 0.0
2017-Apr-24 15:57N 38°26' E 118°24'0 0.0
2017-Apr-24 15:27N 38°26' E 118°24'0 0.0
2017-Apr-24 14:49N 38°26' E 118°24'0 0.0
2017-Apr-24 14:30N 38°26' E 118°24'0 0.0
2017-Apr-24 13:27N 38°26' E 118°24'0 0.0
2017-Apr-24 12:57N 38°26' E 118°24'0 0.1
2017-Apr-24 12:29N 38°26' E 118°24'0 0.0
2017-Apr-24 11:55N 38°26' E 118°24'0 0.0
2017-Apr-24 11:30N 38°26' E 118°24'0 0.0
2017-Apr-24 10:41N 38°26' E 118°24'0 0.0
2017-Apr-24 10:28N 38°26' E 118°24'3 0.1
2017-Apr-23 10:55N 38°28' E 118°22'3 8.3
2017-Apr-23 10:31N 38°30' E 118°18'4 8.5
2017-Apr-23 09:59N 38°32' E 118°13'5 8.6
2017-Apr-23 09:25N 38°35' E 118°08'4 8.6
2017-Apr-23 08:59N 38°37' E 118°04'  
2017-Apr-20 07:31N 38°38' E 117°49'0 0.0
2017-Apr-20 07:22N 38°38' E 117°49'0 0.0
2017-Apr-20 07:00N 38°38' E 117°49'0 0.0
2017-Apr-20 06:31N 38°38' E 117°49'0 0.1
2017-Apr-20 05:58N 38°38' E 117°50'0 0.0
2017-Apr-20 05:21N 38°38' E 117°50'1 1.1
2017-Apr-20 04:14N 38°38' E 117°48'1 2.0
2017-Apr-20 03:58N 38°38' E 117°47'7 6.1
2017-Apr-20 02:50N 38°39' E 117°56'2 4.4
2017-Apr-20 02:30N 38°39' E 117°58'0 0.2
2017-Apr-20 01:59N 38°39' E 117°58'  
Track history (hours):
 
Tides and Currents Weather Stations Pressure Air Temp Water Temp Dewpoint Dewpoint Depression Visibility Wind Speed Wind Dir Waves Ship Positions

Zhe Pu Tuo 2012

Last reported at 2017-Apr-27 00:15 UTC. Time now 2017-Apr-27 05:20 UTC.
Position N 38°27' E 118°24'.

; draft 4 m.

Type: Tug. MMSI: 412763040.

Date/timePositionNaut miles runAvg speedWind from/ knotsBaromVisibWave heightAir tempDewpointWater temp
2017-Apr-27 00:15N 38°27' E 118°24'0 0.0
2017-Apr-25 09:12N 38°27' E 118°24'0 0.0
2017-Apr-25 08:45N 38°27' E 118°24'1 0.1
2017-Apr-25 03:41N 38°27' E 118°25'0 0.2
2017-Apr-25 03:26N 38°27' E 118°25'1 1.3
2017-Apr-25 02:58N 38°26' E 118°25'1 0.1
2017-Apr-24 17:37N 38°26' E 118°24'0 0.0
2017-Apr-24 15:57N 38°26' E 118°24'0 0.0
2017-Apr-24 15:27N 38°26' E 118°24'0 0.0
2017-Apr-24 14:49N 38°26' E 118°24'0 0.0
2017-Apr-24 14:30N 38°26' E 118°24'0 0.0
2017-Apr-24 13:27N 38°26' E 118°24'0 0.0
2017-Apr-24 12:57N 38°26' E 118°24'0 0.1
2017-Apr-24 12:29N 38°26' E 118°24'0 0.0
2017-Apr-24 11:55N 38°26' E 118°24'0 0.0
2017-Apr-24 11:30N 38°26' E 118°24'0 0.0
2017-Apr-24 10:41N 38°26' E 118°24'0 0.0
2017-Apr-24 10:28N 38°26' E 118°24'3 0.1
2017-Apr-23 10:55N 38°28' E 118°22'3 8.3
2017-Apr-23 10:31N 38°30' E 118°18'4 8.5
2017-Apr-23 09:59N 38°32' E 118°13'5 8.6
2017-Apr-23 09:25N 38°35' E 118°08'4 8.6
2017-Apr-23 08:59N 38°37' E 118°04'  
2017-Apr-20 07:31N 38°38' E 117°49'0 0.0
2017-Apr-20 07:22N 38°38' E 117°49'0 0.0
2017-Apr-20 07:00N 38°38' E 117°49'0 0.0
2017-Apr-20 06:31N 38°38' E 117°49'0 0.1
2017-Apr-20 05:58N 38°38' E 117°50'0 0.0
2017-Apr-20 05:21N 38°38' E 117°50'1 1.1
2017-Apr-20 04:14N 38°38' E 117°48'1 2.0
2017-Apr-20 03:58N 38°38' E 117°47'7 6.1
2017-Apr-20 02:50N 38°39' E 117°56'2 4.4
2017-Apr-20 02:30N 38°39' E 117°58'0 0.2
2017-Apr-20 01:59N 38°39' E 117°58'  

Dump ship's entire track history